sensor_id;sensor_type;location;lat;lon;timestamp;P1;durP1;ratioP1;P2;durP2;ratioP2
2452;SDS011;1238;47.994;7.854;2022-07-06T00:02:08;2.38;;;1.58;;
2452;SDS011;1238;47.994;7.854;2022-07-06T00:07:12;2.35;;;1.48;;
2452;SDS011;1238;47.994;7.854;2022-07-06T00:09:45;3.53;;;1.50;;
2452;SDS011;1238;47.994;7.854;2022-07-06T00:12:18;3.45;;;1.50;;
2452;SDS011;1238;47.994;7.854;2022-07-06T00:14:50;2.67;;;1.70;;
2452;SDS011;1238;47.994;7.854;2022-07-06T00:17:23;2.70;;;1.58;;
2452;SDS011;1238;47.994;7.854;2022-07-06T00:19:55;3.90;;;1.90;;
2452;SDS011;1238;47.994;7.854;2022-07-06T00:22:27;2.40;;;1.40;;
2452;SDS011;1238;47.994;7.854;2022-07-06T00:25:00;3.80;;;1.50;;
2452;SDS011;1238;47.994;7.854;2022-07-06T00:30:05;4.20;;;1.60;;
2452;SDS011;1238;47.994;7.854;2022-07-06T00:32:38;2.47;;;1.45;;
2452;SDS011;1238;47.994;7.854;2022-07-06T00:35:11;2.28;;;1.60;;
2452;SDS011;1238;47.994;7.854;2022-07-06T00:37:43;3.10;;;1.67;;
2452;SDS011;1238;47.994;7.854;2022-07-06T00:42:49;4.43;;;2.15;;
2452;SDS011;1238;47.994;7.854;2022-07-06T00:47:53;2.35;;;1.20;;
2452;SDS011;1238;47.994;7.854;2022-07-06T00:53:01;5.30;;;1.45;;
2452;SDS011;1238;47.994;7.854;2022-07-06T00:55:37;4.53;;;1.40;;
2452;SDS011;1238;47.994;7.854;2022-07-06T00:58:12;5.03;;;1.55;;
2452;SDS011;1238;47.994;7.854;2022-07-06T01:00:45;6.40;;;1.73;;
2452;SDS011;1238;47.994;7.854;2022-07-06T01:05:50;2.92;;;1.52;;
2452;SDS011;1238;47.994;7.854;2022-07-06T01:08:22;2.13;;;1.50;;
2452;SDS011;1238;47.994;7.854;2022-07-06T01:10:56;3.03;;;1.60;;
2452;SDS011;1238;47.994;7.854;2022-07-06T01:13:28;4.38;;;1.60;;
2452;SDS011;1238;47.994;7.854;2022-07-06T01:16:02;4.72;;;1.60;;
2452;SDS011;1238;47.994;7.854;2022-07-06T01:18:35;3.78;;;1.70;;
2452;SDS011;1238;47.994;7.854;2022-07-06T01:21:09;3.20;;;1.45;;
2452;SDS011;1238;47.994;7.854;2022-07-06T01:23:43;3.85;;;1.52;;
2452;SDS011;1238;47.994;7.854;2022-07-06T01:26:17;2.83;;;1.33;;
2452;SDS011;1238;47.994;7.854;2022-07-06T01:28:52;2.47;;;1.40;;
2452;SDS011;1238;47.994;7.854;2022-07-06T01:31:24;1.75;;;1.38;;
2452;SDS011;1238;47.994;7.854;2022-07-06T01:33:57;3.08;;;1.38;;
2452;SDS011;1238;47.994;7.854;2022-07-06T01:36:31;3.85;;;1.92;;
2452;SDS011;1238;47.994;7.854;2022-07-06T01:39:03;3.25;;;1.40;;
2452;SDS011;1238;47.994;7.854;2022-07-06T01:41:36;2.85;;;1.20;;
2452;SDS011;1238;47.994;7.854;2022-07-06T01:44:09;1.77;;;1.25;;
2452;SDS011;1238;47.994;7.854;2022-07-06T01:46:42;3.67;;;1.38;;
2452;SDS011;1238;47.994;7.854;2022-07-06T01:49:14;3.42;;;1.50;;
2452;SDS011;1238;47.994;7.854;2022-07-06T01:54:19;2.75;;;1.50;;
2452;SDS011;1238;47.994;7.854;2022-07-06T01:59:23;2.78;;;1.50;;
2452;SDS011;1238;47.994;7.854;2022-07-06T02:04:28;3.90;;;1.45;;
2452;SDS011;1238;47.994;7.854;2022-07-06T02:07:01;4.20;;;1.40;;
2452;SDS011;1238;47.994;7.854;2022-07-06T02:12:05;3.63;;;1.52;;
2452;SDS011;1238;47.994;7.854;2022-07-06T02:14:39;2.83;;;1.60;;
2452;SDS011;1238;47.994;7.854;2022-07-06T02:17:11;5.75;;;1.80;;
2452;SDS011;1238;47.994;7.854;2022-07-06T02:19:44;3.42;;;1.63;;
2452;SDS011;1238;47.994;7.854;2022-07-06T02:22:16;2.95;;;1.58;;
2452;SDS011;1238;47.994;7.854;2022-07-06T02:24:49;3.17;;;1.70;;
2452;SDS011;1238;47.994;7.854;2022-07-06T02:27:22;3.70;;;1.90;;
2452;SDS011;1238;47.994;7.854;2022-07-06T02:29:55;2.92;;;2.13;;
2452;SDS011;1238;47.994;7.854;2022-07-06T02:32:27;3.38;;;1.70;;
2452;SDS011;1238;47.994;7.854;2022-07-06T02:35:00;2.92;;;1.60;;
2452;SDS011;1238;47.994;7.854;2022-07-06T02:37:33;3.20;;;1.67;;
2452;SDS011;1238;47.994;7.854;2022-07-06T02:40:06;4.18;;;1.90;;
2452;SDS011;1238;47.994;7.854;2022-07-06T02:42:38;2.75;;;1.60;;
2452;SDS011;1238;47.994;7.854;2022-07-06T02:45:12;5.32;;;1.58;;
2452;SDS011;1238;47.994;7.854;2022-07-06T02:47:45;3.45;;;1.60;;
2452;SDS011;1238;47.994;7.854;2022-07-06T02:50:19;3.95;;;2.03;;
2452;SDS011;1238;47.994;7.854;2022-07-06T02:52:51;2.63;;;1.40;;
2452;SDS011;1238;47.994;7.854;2022-07-06T02:55:24;2.45;;;1.70;;
2452;SDS011;1238;47.994;7.854;2022-07-06T02:57:57;2.00;;;1.50;;
2452;SDS011;1238;47.994;7.854;2022-07-06T03:00:30;2.45;;;1.60;;
2452;SDS011;1238;47.994;7.854;2022-07-06T03:03:02;3.53;;;1.58;;
2452;SDS011;1238;47.994;7.854;2022-07-06T03:05:35;3.35;;;1.75;;
2452;SDS011;1238;47.994;7.854;2022-07-06T03:08:08;2.75;;;1.63;;
2452;SDS011;1238;47.994;7.854;2022-07-06T03:10:41;3.05;;;1.60;;
2452;SDS011;1238;47.994;7.854;2022-07-06T03:13:13;2.08;;;1.55;;
2452;SDS011;1238;47.994;7.854;2022-07-06T03:15:46;2.53;;;1.50;;
2452;SDS011;1238;47.994;7.854;2022-07-06T03:18:19;3.58;;;1.80;;
2452;SDS011;1238;47.994;7.854;2022-07-06T03:20:52;2.90;;;1.60;;
2452;SDS011;1238;47.994;7.854;2022-07-06T03:23:25;3.45;;;1.60;;
2452;SDS011;1238;47.994;7.854;2022-07-06T03:25:58;3.38;;;1.63;;
2452;SDS011;1238;47.994;7.854;2022-07-06T03:28:32;2.45;;;1.65;;
2452;SDS011;1238;47.994;7.854;2022-07-06T03:33:37;4.32;;;1.60;;
2452;SDS011;1238;47.994;7.854;2022-07-06T03:36:10;4.47;;;2.33;;
2452;SDS011;1238;47.994;7.854;2022-07-06T03:38:43;3.35;;;1.70;;
2452;SDS011;1238;47.994;7.854;2022-07-06T03:41:15;2.67;;;1.48;;
2452;SDS011;1238;47.994;7.854;2022-07-06T03:43:47;4.72;;;1.80;;
2452;SDS011;1238;47.994;7.854;2022-07-06T03:46:20;3.40;;;1.75;;
2452;SDS011;1238;47.994;7.854;2022-07-06T03:51:25;5.20;;;1.67;;
2452;SDS011;1238;47.994;7.854;2022-07-06T03:53:57;2.25;;;1.50;;
2452;SDS011;1238;47.994;7.854;2022-07-06T03:56:30;3.50;;;1.42;;
2452;SDS011;1238;47.994;7.854;2022-07-06T03:59:10;1.52;;;1.23;;
2452;SDS011;1238;47.994;7.854;2022-07-06T04:01:42;3.60;;;1.30;;
2452;SDS011;1238;47.994;7.854;2022-07-06T04:04:17;2.13;;;1.38;;
2452;SDS011;1238;47.994;7.854;2022-07-06T04:06:51;3.22;;;1.48;;
2452;SDS011;1238;47.994;7.854;2022-07-06T04:11:57;2.22;;;1.30;;
2452;SDS011;1238;47.994;7.854;2022-07-06T04:14:29;2.90;;;1.45;;
2452;SDS011;1238;47.994;7.854;2022-07-06T04:17:06;3.47;;;1.50;;
2452;SDS011;1238;47.994;7.854;2022-07-06T04:19:57;3.70;;;1.65;;
2452;SDS011;1238;47.994;7.854;2022-07-06T04:22:30;4.43;;;1.80;;
2452;SDS011;1238;47.994;7.854;2022-07-06T04:25:02;4.10;;;1.65;;
2452;SDS011;1238;47.994;7.854;2022-07-06T04:27:35;3.05;;;1.73;;
2452;SDS011;1238;47.994;7.854;2022-07-06T04:32:40;3.88;;;2.05;;
2452;SDS011;1238;47.994;7.854;2022-07-06T04:35:13;4.63;;;1.80;;
2452;SDS011;1238;47.994;7.854;2022-07-06T04:37:50;3.80;;;1.70;;
2452;SDS011;1238;47.994;7.854;2022-07-06T04:40:25;3.85;;;1.90;;
2452;SDS011;1238;47.994;7.854;2022-07-06T04:43:02;3.65;;;1.83;;
2452;SDS011;1238;47.994;7.854;2022-07-06T04:45:34;3.10;;;1.77;;
2452;SDS011;1238;47.994;7.854;2022-07-06T04:48:08;5.63;;;2.00;;
2452;SDS011;1238;47.994;7.854;2022-07-06T04:50:41;4.35;;;1.90;;
2452;SDS011;1238;47.994;7.854;2022-07-06T04:53:18;3.90;;;1.70;;
2452;SDS011;1238;47.994;7.854;2022-07-06T04:55:51;4.60;;;1.42;;
2452;SDS011;1238;47.994;7.854;2022-07-06T04:58:24;2.20;;;1.73;;
2452;SDS011;1238;47.994;7.854;2022-07-06T05:01:13;3.70;;;1.80;;
2452;SDS011;1238;47.994;7.854;2022-07-06T05:03:46;3.85;;;1.80;;
2452;SDS011;1238;47.994;7.854;2022-07-06T05:06:19;3.30;;;2.05;;
2452;SDS011;1238;47.994;7.854;2022-07-06T05:08:52;3.35;;;1.75;;
2452;SDS011;1238;47.994;7.854;2022-07-06T05:13:58;3.20;;;1.80;;
2452;SDS011;1238;47.994;7.854;2022-07-06T05:16:31;3.83;;;1.88;;
2452;SDS011;1238;47.994;7.854;2022-07-06T05:19:04;3.75;;;1.90;;
2452;SDS011;1238;47.994;7.854;2022-07-06T05:21:37;2.78;;;1.60;;
2452;SDS011;1238;47.994;7.854;2022-07-06T05:24:12;4.45;;;2.00;;
2452;SDS011;1238;47.994;7.854;2022-07-06T05:26:45;4.65;;;1.70;;
2452;SDS011;1238;47.994;7.854;2022-07-06T05:29:18;4.75;;;1.90;;
2452;SDS011;1238;47.994;7.854;2022-07-06T05:34:23;7.13;;;2.10;;
2452;SDS011;1238;47.994;7.854;2022-07-06T05:36:56;2.92;;;1.90;;
2452;SDS011;1238;47.994;7.854;2022-07-06T05:39:29;3.28;;;2.08;;
2452;SDS011;1238;47.994;7.854;2022-07-06T05:42:01;3.05;;;1.70;;
2452;SDS011;1238;47.994;7.854;2022-07-06T05:44:36;5.03;;;2.30;;
2452;SDS011;1238;47.994;7.854;2022-07-06T05:47:08;3.30;;;1.70;;
2452;SDS011;1238;47.994;7.854;2022-07-06T05:49:59;3.03;;;1.80;;
2452;SDS011;1238;47.994;7.854;2022-07-06T05:52:55;5.45;;;2.00;;
2452;SDS011;1238;47.994;7.854;2022-07-06T05:55:30;5.10;;;2.10;;
2452;SDS011;1238;47.994;7.854;2022-07-06T05:58:05;8.45;;;2.03;;
2452;SDS011;1238;47.994;7.854;2022-07-06T06:00:40;4.10;;;2.60;;
2452;SDS011;1238;47.994;7.854;2022-07-06T06:03:18;6.38;;;1.77;;
2452;SDS011;1238;47.994;7.854;2022-07-06T06:05:52;4.18;;;2.20;;
2452;SDS011;1238;47.994;7.854;2022-07-06T06:08:27;5.85;;;2.55;;
2452;SDS011;1238;47.994;7.854;2022-07-06T06:11:00;5.00;;;2.50;;
2452;SDS011;1238;47.994;7.854;2022-07-06T06:13:39;3.65;;;2.20;;
2452;SDS011;1238;47.994;7.854;2022-07-06T06:16:11;7.97;;;2.67;;
2452;SDS011;1238;47.994;7.854;2022-07-06T06:18:44;5.47;;;2.40;;
2452;SDS011;1238;47.994;7.854;2022-07-06T06:23:50;5.25;;;2.72;;
2452;SDS011;1238;47.994;7.854;2022-07-06T06:26:22;5.93;;;2.30;;
2452;SDS011;1238;47.994;7.854;2022-07-06T06:28:55;7.25;;;2.40;;
2452;SDS011;1238;47.994;7.854;2022-07-06T06:31:27;3.25;;;1.95;;
2452;SDS011;1238;47.994;7.854;2022-07-06T06:33:59;3.72;;;2.03;;
2452;SDS011;1238;47.994;7.854;2022-07-06T06:36:31;4.72;;;2.50;;
2452;SDS011;1238;47.994;7.854;2022-07-06T06:39:03;3.00;;;2.00;;
2452;SDS011;1238;47.994;7.854;2022-07-06T06:41:36;8.23;;;2.50;;
2452;SDS011;1238;47.994;7.854;2022-07-06T06:44:08;4.80;;;2.42;;
2452;SDS011;1238;47.994;7.854;2022-07-06T06:46:44;7.15;;;2.08;;
2452;SDS011;1238;47.994;7.854;2022-07-06T06:49:17;5.72;;;1.83;;
2452;SDS011;1238;47.994;7.854;2022-07-06T06:51:49;6.00;;;2.00;;
2452;SDS011;1238;47.994;7.854;2022-07-06T06:54:42;4.68;;;2.20;;
2452;SDS011;1238;47.994;7.854;2022-07-06T06:57:14;3.55;;;1.80;;
2452;SDS011;1238;47.994;7.854;2022-07-06T06:59:47;6.13;;;1.67;;
2452;SDS011;1238;47.994;7.854;2022-07-06T07:02:19;4.20;;;1.83;;
2452;SDS011;1238;47.994;7.854;2022-07-06T07:04:51;4.28;;;1.90;;
2452;SDS011;1238;47.994;7.854;2022-07-06T07:07:24;3.20;;;1.70;;
2452;SDS011;1238;47.994;7.854;2022-07-06T07:09:56;3.72;;;1.98;;
2452;SDS011;1238;47.994;7.854;2022-07-06T07:12:28;4.45;;;1.75;;
2452;SDS011;1238;47.994;7.854;2022-07-06T07:15:01;5.95;;;2.33;;
2452;SDS011;1238;47.994;7.854;2022-07-06T07:17:33;2.92;;;1.92;;
2452;SDS011;1238;47.994;7.854;2022-07-06T07:20:06;7.88;;;2.40;;
2452;SDS011;1238;47.994;7.854;2022-07-06T07:22:39;3.50;;;2.03;;
2452;SDS011;1238;47.994;7.854;2022-07-06T07:25:11;4.60;;;2.08;;
2452;SDS011;1238;47.994;7.854;2022-07-06T07:27:43;3.20;;;1.90;;
2452;SDS011;1238;47.994;7.854;2022-07-06T07:30:16;4.22;;;2.10;;
2452;SDS011;1238;47.994;7.854;2022-07-06T07:32:49;3.78;;;2.05;;
2452;SDS011;1238;47.994;7.854;2022-07-06T07:35:22;5.63;;;2.40;;
2452;SDS011;1238;47.994;7.854;2022-07-06T07:37:55;4.22;;;2.15;;
2452;SDS011;1238;47.994;7.854;2022-07-06T07:40:27;5.35;;;2.00;;
2452;SDS011;1238;47.994;7.854;2022-07-06T07:43:00;6.57;;;2.63;;
2452;SDS011;1238;47.994;7.854;2022-07-06T07:45:32;9.32;;;2.50;;
2452;SDS011;1238;47.994;7.854;2022-07-06T07:48:04;5.05;;;2.15;;
2452;SDS011;1238;47.994;7.854;2022-07-06T07:50:39;5.03;;;2.53;;
2452;SDS011;1238;47.994;7.854;2022-07-06T07:53:12;4.03;;;2.30;;
2452;SDS011;1238;47.994;7.854;2022-07-06T07:58:16;3.88;;;2.30;;
2452;SDS011;1238;47.994;7.854;2022-07-06T08:00:48;4.05;;;2.25;;
2452;SDS011;1238;47.994;7.854;2022-07-06T08:03:21;4.25;;;1.95;;
2452;SDS011;1238;47.994;7.854;2022-07-06T08:05:53;4.60;;;2.22;;
2452;SDS011;1238;47.994;7.854;2022-07-06T08:08:26;8.48;;;2.60;;
2452;SDS011;1238;47.994;7.854;2022-07-06T08:10:59;6.10;;;2.03;;
2452;SDS011;1238;47.994;7.854;2022-07-06T08:13:49;5.13;;;2.35;;
2452;SDS011;1238;47.994;7.854;2022-07-06T08:16:22;10.63;;;2.90;;
2452;SDS011;1238;47.994;7.854;2022-07-06T08:18:54;3.00;;;2.10;;
2452;SDS011;1238;47.994;7.854;2022-07-06T08:21:27;4.28;;;2.30;;
2452;SDS011;1238;47.994;7.854;2022-07-06T08:23:59;5.70;;;2.45;;
2452;SDS011;1238;47.994;7.854;2022-07-06T08:26:33;5.38;;;2.38;;
2452;SDS011;1238;47.994;7.854;2022-07-06T08:29:06;4.85;;;1.90;;
2452;SDS011;1238;47.994;7.854;2022-07-06T08:31:38;3.95;;;2.10;;
2452;SDS011;1238;47.994;7.854;2022-07-06T08:37:04;7.20;;;2.75;;
2452;SDS011;1238;47.994;7.854;2022-07-06T08:39:37;6.40;;;2.78;;
2452;SDS011;1238;47.994;7.854;2022-07-06T08:42:09;4.22;;;1.88;;
2452;SDS011;1238;47.994;7.854;2022-07-06T08:44:42;6.60;;;2.67;;
2452;SDS011;1238;47.994;7.854;2022-07-06T08:47:15;6.05;;;2.50;;
2452;SDS011;1238;47.994;7.854;2022-07-06T08:49:50;5.15;;;2.17;;
2452;SDS011;1238;47.994;7.854;2022-07-06T08:52:23;4.32;;;2.17;;
2452;SDS011;1238;47.994;7.854;2022-07-06T08:54:56;6.40;;;2.58;;
2452;SDS011;1238;47.994;7.854;2022-07-06T08:57:29;4.60;;;2.03;;
2452;SDS011;1238;47.994;7.854;2022-07-06T09:00:01;6.50;;;2.20;;
2452;SDS011;1238;47.994;7.854;2022-07-06T09:02:34;3.55;;;1.88;;
2452;SDS011;1238;47.994;7.854;2022-07-06T09:05:08;4.35;;;2.42;;
2452;SDS011;1238;47.994;7.854;2022-07-06T09:07:49;4.70;;;2.20;;
2452;SDS011;1238;47.994;7.854;2022-07-06T09:10:31;7.63;;;2.30;;
2452;SDS011;1238;47.994;7.854;2022-07-06T09:13:04;6.80;;;2.47;;
2452;SDS011;1238;47.994;7.854;2022-07-06T09:15:37;6.60;;;2.20;;
2452;SDS011;1238;47.994;7.854;2022-07-06T09:18:11;4.13;;;1.90;;
2452;SDS011;1238;47.994;7.854;2022-07-06T09:20:44;4.60;;;1.95;;
2452;SDS011;1238;47.994;7.854;2022-07-06T09:23:16;5.63;;;1.90;;
2452;SDS011;1238;47.994;7.854;2022-07-06T09:25:49;5.75;;;2.28;;
2452;SDS011;1238;47.994;7.854;2022-07-06T09:28:21;4.15;;;1.85;;
2452;SDS011;1238;47.994;7.854;2022-07-06T09:30:56;6.40;;;2.33;;
2452;SDS011;1238;47.994;7.854;2022-07-06T09:33:53;4.25;;;1.98;;
2452;SDS011;1238;47.994;7.854;2022-07-06T09:36:53;5.15;;;2.15;;
2452;SDS011;1238;47.994;7.854;2022-07-06T09:39:28;10.52;;;2.15;;
2452;SDS011;1238;47.994;7.854;2022-07-06T09:42:01;3.38;;;1.90;;
2452;SDS011;1238;47.994;7.854;2022-07-06T09:44:41;3.88;;;1.75;;
2452;SDS011;1238;47.994;7.854;2022-07-06T09:47:14;5.53;;;1.70;;
2452;SDS011;1238;47.994;7.854;2022-07-06T09:49:46;8.27;;;2.28;;
2452;SDS011;1238;47.994;7.854;2022-07-06T09:52:21;3.78;;;2.22;;
2452;SDS011;1238;47.994;7.854;2022-07-06T09:54:55;3.35;;;1.90;;
2452;SDS011;1238;47.994;7.854;2022-07-06T09:57:27;5.97;;;1.75;;
2452;SDS011;1238;47.994;7.854;2022-07-06T10:00:00;5.55;;;2.30;;
2452;SDS011;1238;47.994;7.854;2022-07-06T10:02:42;3.28;;;1.80;;
2452;SDS011;1238;47.994;7.854;2022-07-06T10:05:15;4.97;;;2.10;;
2452;SDS011;1238;47.994;7.854;2022-07-06T10:07:49;6.60;;;2.03;;
2452;SDS011;1238;47.994;7.854;2022-07-06T10:10:26;3.17;;;1.67;;
2452;SDS011;1238;47.994;7.854;2022-07-06T10:13:00;3.65;;;1.70;;
2452;SDS011;1238;47.994;7.854;2022-07-06T10:15:33;2.72;;;1.70;;
2452;SDS011;1238;47.994;7.854;2022-07-06T10:18:08;4.93;;;1.70;;
2452;SDS011;1238;47.994;7.854;2022-07-06T10:20:41;4.43;;;2.22;;
2452;SDS011;1238;47.994;7.854;2022-07-06T10:23:14;4.15;;;1.73;;
2452;SDS011;1238;47.994;7.854;2022-07-06T10:25:47;3.80;;;1.92;;
2452;SDS011;1238;47.994;7.854;2022-07-06T10:28:20;3.88;;;1.50;;
2452;SDS011;1238;47.994;7.854;2022-07-06T10:30:53;4.95;;;1.67;;
2452;SDS011;1238;47.994;7.854;2022-07-06T10:33:26;4.20;;;1.75;;
2452;SDS011;1238;47.994;7.854;2022-07-06T10:35:59;4.70;;;1.80;;
2452;SDS011;1238;47.994;7.854;2022-07-06T10:38:32;3.67;;;1.73;;
2452;SDS011;1238;47.994;7.854;2022-07-06T10:41:06;3.47;;;1.60;;
2452;SDS011;1238;47.994;7.854;2022-07-06T10:43:44;4.50;;;1.40;;
2452;SDS011;1238;47.994;7.854;2022-07-06T10:46:18;5.85;;;2.15;;
2452;SDS011;1238;47.994;7.854;2022-07-06T10:48:54;8.50;;;1.80;;
2452;SDS011;1238;47.994;7.854;2022-07-06T10:51:28;2.80;;;1.45;;
2452;SDS011;1238;47.994;7.854;2022-07-06T10:54:04;2.25;;;1.38;;
2452;SDS011;1238;47.994;7.854;2022-07-06T10:59:14;3.63;;;1.67;;
2452;SDS011;1238;47.994;7.854;2022-07-06T11:04:50;2.92;;;1.42;;
2452;SDS011;1238;47.994;7.854;2022-07-06T11:07:22;6.90;;;1.83;;
2452;SDS011;1238;47.994;7.854;2022-07-06T11:09:55;3.17;;;1.55;;
2452;SDS011;1238;47.994;7.854;2022-07-06T11:12:28;6.22;;;1.92;;
2452;SDS011;1238;47.994;7.854;2022-07-06T11:15:01;3.30;;;1.70;;
2452;SDS011;1238;47.994;7.854;2022-07-06T11:17:34;5.28;;;1.92;;
2452;SDS011;1238;47.994;7.854;2022-07-06T11:20:10;7.75;;;1.80;;
2452;SDS011;1238;47.994;7.854;2022-07-06T11:25:20;3.13;;;1.52;;
2452;SDS011;1238;47.994;7.854;2022-07-06T11:27:52;3.10;;;1.63;;
2452;SDS011;1238;47.994;7.854;2022-07-06T11:30:25;3.95;;;1.73;;
2452;SDS011;1238;47.994;7.854;2022-07-06T11:33:05;6.53;;;1.67;;
2452;SDS011;1238;47.994;7.854;2022-07-06T11:35:37;9.05;;;2.20;;
2452;SDS011;1238;47.994;7.854;2022-07-06T11:38:25;4.72;;;1.63;;
2452;SDS011;1238;47.994;7.854;2022-07-06T11:40:59;5.00;;;1.55;;
2452;SDS011;1238;47.994;7.854;2022-07-06T11:43:32;4.00;;;1.75;;
2452;SDS011;1238;47.994;7.854;2022-07-06T11:46:04;5.13;;;1.45;;
2452;SDS011;1238;47.994;7.854;2022-07-06T11:48:37;6.18;;;1.80;;
2452;SDS011;1238;47.994;7.854;2022-07-06T11:51:09;3.20;;;1.30;;
2452;SDS011;1238;47.994;7.854;2022-07-06T11:53:45;4.20;;;1.40;;
2452;SDS011;1238;47.994;7.854;2022-07-06T11:56:27;6.30;;;1.95;;
2452;SDS011;1238;47.994;7.854;2022-07-06T11:59:00;5.50;;;1.98;;
2452;SDS011;1238;47.994;7.854;2022-07-06T12:01:33;3.30;;;2.00;;
2452;SDS011;1238;47.994;7.854;2022-07-06T12:04:05;5.65;;;1.48;;
2452;SDS011;1238;47.994;7.854;2022-07-06T12:06:39;3.90;;;1.45;;
2452;SDS011;1238;47.994;7.854;2022-07-06T12:09:14;4.35;;;1.55;;
2452;SDS011;1238;47.994;7.854;2022-07-06T12:11:47;4.03;;;2.05;;
2452;SDS011;1238;47.994;7.854;2022-07-06T12:14:20;2.60;;;1.60;;
2452;SDS011;1238;47.994;7.854;2022-07-06T12:16:52;5.78;;;2.17;;
2452;SDS011;1238;47.994;7.854;2022-07-06T12:19:27;3.08;;;1.60;;
2452;SDS011;1238;47.994;7.854;2022-07-06T12:21:59;8.10;;;2.13;;
2452;SDS011;1238;47.994;7.854;2022-07-06T12:24:33;4.15;;;1.60;;
2452;SDS011;1238;47.994;7.854;2022-07-06T12:27:14;7.85;;;1.80;;
2452;SDS011;1238;47.994;7.854;2022-07-06T12:29:48;3.55;;;1.65;;
2452;SDS011;1238;47.994;7.854;2022-07-06T12:32:21;3.50;;;1.60;;
2452;SDS011;1238;47.994;7.854;2022-07-06T12:35:04;3.53;;;2.40;;
2452;SDS011;1238;47.994;7.854;2022-07-06T12:37:55;5.75;;;1.75;;
2452;SDS011;1238;47.994;7.854;2022-07-06T12:40:29;4.43;;;1.60;;
2452;SDS011;1238;47.994;7.854;2022-07-06T12:43:02;3.53;;;1.50;;
2452;SDS011;1238;47.994;7.854;2022-07-06T12:45:35;2.95;;;1.50;;
2452;SDS011;1238;47.994;7.854;2022-07-06T12:48:08;3.40;;;1.45;;
2452;SDS011;1238;47.994;7.854;2022-07-06T12:50:40;6.30;;;2.00;;
2452;SDS011;1238;47.994;7.854;2022-07-06T12:53:24;4.25;;;2.00;;
2452;SDS011;1238;47.994;7.854;2022-07-06T12:56:11;3.58;;;1.90;;
2452;SDS011;1238;47.994;7.854;2022-07-06T12:58:57;4.00;;;2.13;;
2452;SDS011;1238;47.994;7.854;2022-07-06T13:01:30;1.92;;;1.60;;
2452;SDS011;1238;47.994;7.854;2022-07-06T13:04:06;4.45;;;1.67;;
2452;SDS011;1238;47.994;7.854;2022-07-06T13:06:39;3.78;;;1.70;;
2452;SDS011;1238;47.994;7.854;2022-07-06T13:09:11;2.20;;;1.50;;
2452;SDS011;1238;47.994;7.854;2022-07-06T13:11:47;3.45;;;1.60;;
2452;SDS011;1238;47.994;7.854;2022-07-06T13:14:20;3.15;;;2.00;;
2452;SDS011;1238;47.994;7.854;2022-07-06T13:16:52;3.28;;;1.90;;
2452;SDS011;1238;47.994;7.854;2022-07-06T13:19:25;4.15;;;2.10;;
2452;SDS011;1238;47.994;7.854;2022-07-06T13:21:58;4.50;;;1.58;;
2452;SDS011;1238;47.994;7.854;2022-07-06T13:24:30;4.40;;;2.20;;
2452;SDS011;1238;47.994;7.854;2022-07-06T13:27:09;3.45;;;1.80;;
2452;SDS011;1238;47.994;7.854;2022-07-06T13:29:42;8.88;;;1.98;;
2452;SDS011;1238;47.994;7.854;2022-07-06T13:32:15;4.97;;;2.15;;
2452;SDS011;1238;47.994;7.854;2022-07-06T13:34:47;3.65;;;2.08;;
2452;SDS011;1238;47.994;7.854;2022-07-06T13:37:20;5.80;;;1.77;;
2452;SDS011;1238;47.994;7.854;2022-07-06T13:39:52;4.93;;;1.90;;
2452;SDS011;1238;47.994;7.854;2022-07-06T13:42:25;4.60;;;1.63;;
2452;SDS011;1238;47.994;7.854;2022-07-06T13:44:57;4.13;;;1.65;;
2452;SDS011;1238;47.994;7.854;2022-07-06T13:47:29;4.65;;;1.90;;
2452;SDS011;1238;47.994;7.854;2022-07-06T13:50:02;5.22;;;1.50;;
2452;SDS011;1238;47.994;7.854;2022-07-06T13:52:34;2.97;;;1.60;;
2452;SDS011;1238;47.994;7.854;2022-07-06T13:55:06;3.28;;;1.77;;
2452;SDS011;1238;47.994;7.854;2022-07-06T13:57:41;3.28;;;1.70;;
2452;SDS011;1238;47.994;7.854;2022-07-06T14:00:14;3.97;;;1.83;;
2452;SDS011;1238;47.994;7.854;2022-07-06T14:02:50;3.72;;;1.77;;
2452;SDS011;1238;47.994;7.854;2022-07-06T14:05:22;4.15;;;1.60;;
2452;SDS011;1238;47.994;7.854;2022-07-06T14:07:55;5.30;;;2.00;;
2452;SDS011;1238;47.994;7.854;2022-07-06T14:10:28;4.80;;;1.90;;
2452;SDS011;1238;47.994;7.854;2022-07-06T14:13:02;7.70;;;2.38;;
2452;SDS011;1238;47.994;7.854;2022-07-06T14:15:35;4.20;;;1.70;;
2452;SDS011;1238;47.994;7.854;2022-07-06T14:18:07;5.00;;;1.67;;
2452;SDS011;1238;47.994;7.854;2022-07-06T14:20:39;2.85;;;1.92;;
2452;SDS011;1238;47.994;7.854;2022-07-06T14:23:12;6.82;;;2.22;;
2452;SDS011;1238;47.994;7.854;2022-07-06T14:25:45;5.53;;;1.85;;
2452;SDS011;1238;47.994;7.854;2022-07-06T14:28:17;3.60;;;1.90;;
2452;SDS011;1238;47.994;7.854;2022-07-06T14:30:50;4.95;;;1.60;;
2452;SDS011;1238;47.994;7.854;2022-07-06T14:33:22;4.10;;;1.35;;
2452;SDS011;1238;47.994;7.854;2022-07-06T14:35:55;3.53;;;1.70;;
2452;SDS011;1238;47.994;7.854;2022-07-06T14:38:27;5.07;;;1.55;;
2452;SDS011;1238;47.994;7.854;2022-07-06T14:41:00;4.60;;;1.60;;
2452;SDS011;1238;47.994;7.854;2022-07-06T14:43:32;4.40;;;2.17;;
2452;SDS011;1238;47.994;7.854;2022-07-06T14:46:04;4.88;;;1.80;;
2452;SDS011;1238;47.994;7.854;2022-07-06T14:48:37;3.50;;;1.55;;
2452;SDS011;1238;47.994;7.854;2022-07-06T14:51:09;6.13;;;1.85;;
2452;SDS011;1238;47.994;7.854;2022-07-06T14:53:42;3.22;;;2.10;;
2452;SDS011;1238;47.994;7.854;2022-07-06T14:56:14;5.65;;;2.00;;
2452;SDS011;1238;47.994;7.854;2022-07-06T14:58:46;3.38;;;1.67;;
2452;SDS011;1238;47.994;7.854;2022-07-06T15:01:38;5.43;;;1.50;;
2452;SDS011;1238;47.994;7.854;2022-07-06T15:04:11;5.80;;;1.70;;
2452;SDS011;1238;47.994;7.854;2022-07-06T15:06:43;2.85;;;1.70;;
2452;SDS011;1238;47.994;7.854;2022-07-06T15:09:31;4.55;;;1.55;;
2452;SDS011;1238;47.994;7.854;2022-07-06T15:12:04;2.47;;;1.70;;
2452;SDS011;1238;47.994;7.854;2022-07-06T15:14:37;5.43;;;2.20;;
2452;SDS011;1238;47.994;7.854;2022-07-06T15:17:10;3.72;;;1.75;;
2452;SDS011;1238;47.994;7.854;2022-07-06T15:19:43;3.92;;;1.70;;
2452;SDS011;1238;47.994;7.854;2022-07-06T15:22:24;4.55;;;1.85;;
2452;SDS011;1238;47.994;7.854;2022-07-06T15:24:56;6.35;;;2.10;;
2452;SDS011;1238;47.994;7.854;2022-07-06T15:27:28;2.47;;;1.70;;
2452;SDS011;1238;47.994;7.854;2022-07-06T15:30:01;4.78;;;1.55;;
2452;SDS011;1238;47.994;7.854;2022-07-06T15:32:53;6.43;;;1.92;;
2452;SDS011;1238;47.994;7.854;2022-07-06T15:35:26;5.05;;;1.65;;
2452;SDS011;1238;47.994;7.854;2022-07-06T15:37:58;6.50;;;1.73;;
2452;SDS011;1238;47.994;7.854;2022-07-06T15:43:09;4.35;;;1.70;;
2452;SDS011;1238;47.994;7.854;2022-07-06T15:48:13;7.18;;;2.08;;
2452;SDS011;1238;47.994;7.854;2022-07-06T15:50:46;3.72;;;1.65;;
2452;SDS011;1238;47.994;7.854;2022-07-06T15:53:18;3.85;;;1.70;;
2452;SDS011;1238;47.994;7.854;2022-07-06T15:55:51;4.32;;;1.85;;
2452;SDS011;1238;47.994;7.854;2022-07-06T15:58:25;4.95;;;2.25;;
2452;SDS011;1238;47.994;7.854;2022-07-06T16:00:58;4.05;;;1.60;;
2452;SDS011;1238;47.994;7.854;2022-07-06T16:03:30;3.55;;;1.40;;
2452;SDS011;1238;47.994;7.854;2022-07-06T16:06:02;5.15;;;1.80;;
2452;SDS011;1238;47.994;7.854;2022-07-06T16:08:41;5.78;;;1.90;;
2452;SDS011;1238;47.994;7.854;2022-07-06T16:11:16;3.15;;;1.40;;
2452;SDS011;1238;47.994;7.854;2022-07-06T16:16:27;5.47;;;1.63;;
2452;SDS011;1238;47.994;7.854;2022-07-06T16:18:59;3.08;;;1.23;;
2452;SDS011;1238;47.994;7.854;2022-07-06T16:21:32;2.88;;;1.30;;
2452;SDS011;1238;47.994;7.854;2022-07-06T16:24:04;3.72;;;1.30;;
2452;SDS011;1238;47.994;7.854;2022-07-06T16:26:37;3.90;;;1.20;;
2452;SDS011;1238;47.994;7.854;2022-07-06T16:29:09;4.72;;;1.35;;
2452;SDS011;1238;47.994;7.854;2022-07-06T16:34:13;2.58;;;0.90;;
2452;SDS011;1238;47.994;7.854;2022-07-06T16:39:18;4.38;;;1.30;;
2452;SDS011;1238;47.994;7.854;2022-07-06T16:41:50;4.35;;;1.48;;
2452;SDS011;1238;47.994;7.854;2022-07-06T16:44:25;3.22;;;1.38;;
2452;SDS011;1238;47.994;7.854;2022-07-06T16:49:30;3.58;;;1.20;;
2452;SDS011;1238;47.994;7.854;2022-07-06T16:52:02;2.38;;;1.35;;
2452;SDS011;1238;47.994;7.854;2022-07-06T16:54:34;5.07;;;1.65;;
2452;SDS011;1238;47.994;7.854;2022-07-06T16:59:39;5.10;;;1.05;;
2452;SDS011;1238;47.994;7.854;2022-07-06T17:02:11;3.80;;;1.20;;
2452;SDS011;1238;47.994;7.854;2022-07-06T17:04:44;2.90;;;1.02;;
2452;SDS011;1238;47.994;7.854;2022-07-06T17:07:16;4.88;;;1.35;;
2452;SDS011;1238;47.994;7.854;2022-07-06T17:12:25;1.17;;;0.68;;
2452;SDS011;1238;47.994;7.854;2022-07-06T17:14:59;1.55;;;0.70;;